Redbird, Wyoming
Current Conditions -  °F | °C
As of 4:35 AM on Tuesday 21 Oct 2014 (Local Time) from KECS Reporting Station
Clear Clear  
Wind Chill: 55°   Ceiling: Unl
Heat Index: 55°   Visibility: 10mi
Dew Point: 34°   Wind: 12mph
Humidity: 44%   Direction: 110°ESE
Pressure: 29.91"   Gusts: NA
Location:  43.24°N, 104.29°W
Report Text: KECS 211035Z AUTO 11010KT 10SM CLR 13/01 A2991 RMK AO2
Loading
Personal Weather Stations






























Interactive Weather Map
Tropical Storm Tracking
New forecast layout! Learn more

10-Day Weather Forecast

Advertisements
Track Severe Weather on mobile